01:10 Rennrad Innsbruck ARZ - Radweg - Voels - Hatting - Pettnau - Moetz
Ort Innsbruck Datum 06.09.2017 17:44:26
Kategorie Rennrad
Distanz 40,15 Kilometer Steigung 154,0 Meter Gefälle -107,0 Meter
Gesamt Zeit 01:10:23 Aktiv 01:10:03 Pause 00:00:20
Durchs. Tempo 34,4 km/h Tempo max. 48,5 km/h Tempo min. 18,7 km/h
Kalorien 0 Durchs. HF 133 BPM HF max. 152 BPM
Wetter 18 °C ChanceRain Min/Max: 17,9 °C/18,9 °C; Druck: 1010,4 mbar; Rel. Feuchte: 86,4%; Taupunkt: 15,8 °C; Windgeschwindigkeit: 0,7 km/h; Niederschlag: 0,0mm
Ausrüstung Bontrager - RL Road
Scott - Addict 20
Shimano - CN-HG601-11
Notiz Innsbruck ARZ - Radweg - Voels - Hatting - Pettnau - Moetz ... nass, tw. Nieselregen, eher leichter Rueckenwind - locker bis flott ... garmin connect
Splits
Distanz (km) Gesamt Zeit Split Zeit Split Tempo Split Tempo Höhenprofil (m)
1,00 00:01:54 00:01:54 00:01:54 31,5 -3,43
2,00 00:03:43 00:01:49 00:01:49 33,0 -4,02
3,00 00:05:29 00:01:45 00:01:46 34,0 2,19
4,00 00:07:11 00:01:42 00:01:43 35,1 1,80
5,00 00:08:55 00:01:43 00:01:43 34,9 3,67
6,00 00:10:55 00:02:00 00:02:01 29,8 10,20
7,00 00:12:41 00:01:46 00:01:46 33,9 -4,65
8,00 00:14:22 00:01:40 00:01:41 35,7 1,18
9,00 00:16:03 00:01:40 00:01:40 35,9 3,40
10,00 00:18:05 00:02:02 00:02:03 29,3 15,45
11,00 00:20:11 00:02:05 00:02:06 28,6 11,55
12,00 00:21:39 00:01:27 00:01:27 41,3 -17,10
13,00 00:23:13 00:01:33 00:01:34 38,3 -6,44
14,00 00:24:47 00:01:34 00:01:35 38,0 5,31
15,00 00:26:25 00:01:37 00:01:38 36,9 0,68
16,00 00:28:06 00:01:40 00:01:41 35,7 1,11
17,00 00:29:53 00:01:47 00:01:47 33,5 5,50
18,00 00:31:53 00:02:00 00:02:00 29,9 13,62
19,00 00:33:30 00:01:36 00:01:37 37,2 -7,98
20,00 00:35:08 00:01:37 00:01:38 36,8 -6,66
21,00 00:37:14 00:02:06 00:02:06 28,6 3,70
22,00 00:38:55 00:01:40 00:01:40 35,8 0,92
23,00 00:40:35 00:01:40 00:01:40 35,8 0,00
24,00 00:42:14 00:01:38 00:01:38 36,6 8,23
25,00 00:43:54 00:01:40 00:01:41 35,8 -3,36
26,00 00:45:37 00:01:42 00:01:43 35,1 3,32
27,00 00:47:22 00:01:44 00:01:45 34,3 1,26
28,00 00:49:03 00:01:41 00:01:41 35,6 -0,50
29,00 00:50:43 00:01:40 00:01:41 35,8 6,54
30,00 00:52:41 00:01:57 00:01:58 30,6 -2,36
31,00 00:54:17 00:01:35 00:01:36 37,5 0,87
32,00 00:55:57 00:01:40 00:01:40 36,0 2,64
33,00 00:57:34 00:01:37 00:01:37 37,1 7,02
34,00 00:59:17 00:01:42 00:01:43 35,0 1,25
35,00 01:00:54 00:01:37 00:01:37 37,0 1,85
36,00 01:02:32 00:01:37 00:01:38 36,8 -1,55
37,00 01:04:15 00:01:43 00:01:43 34,9 3,41
38,00 01:05:58 00:01:42 00:01:43 35,1 1,38
39,00 01:07:42 00:01:44 00:01:44 34,6 0,13
40,00 01:09:36 00:01:53 00:01:54 31,6 8,38
40,17 01:10:03 00:00:26 00:02:32 23,6 1,39